Time;durP1;ratioP1;P1;durP2;ratioP2;P2;SDS_P1;SDS_P2;PMS_P1;PMS_P2;Temp;Humidity;BMP_temperature;BMP_pressure;BME280_temperature;BME280_humidity;BME280_pressure;Samples;Min_cycle;Max_cycle;Signal;HPM_P1;HPM_P2
2024/02/22 00:02:02;;;;;;;2.27;2.07;;;;;;;19.53;52.46;96840.47;5051171;28;20268;-26
2024/02/22 00:04:29;;;;;;;2.40;2.17;;;;;;;19.52;52.46;96818.38;5042354;28;20583;-25
2024/02/22 00:06:56;;;;;;;2.27;2.07;;;;;;;19.49;52.56;96801.34;5039588;28;20193;-25
2024/02/22 00:09:23;;;;;;;3.00;2.10;;;;;;;19.54;52.69;96811.66;5048226;28;20202;-25
2024/02/22 00:11:50;;;;;;;2.37;2.10;;;;;;;19.54;52.66;96809.09;5047904;28;20585;-25
2024/02/22 00:14:18;;;;;;;2.17;2.03;;;;;;;19.54;52.45;96809.09;5047808;28;20233;-25
2024/02/22 00:16:44;;;;;;;2.53;2.00;;;;;;;19.53;52.69;96815.00;5049948;28;20908;-25
2024/02/22 00:19:11;;;;;;;1.80;1.70;;;;;;;19.54;52.62;96804.00;5040430;28;20205;-27
2024/02/22 00:21:37;;;;;;;2.50;2.03;;;;;;;19.53;52.61;96803.13;5042793;28;20239;-25
2024/02/22 00:24:04;;;;;;;7.17;2.40;;;;;;;19.50;52.46;96792.84;5046777;28;20283;-25
2024/02/22 00:26:31;;;;;;;2.23;2.03;;;;;;;19.52;52.32;96795.44;5043916;28;20746;-25
2024/02/22 00:28:57;;;;;;;1.87;1.77;;;;;;;19.52;52.58;96781.03;5047644;28;20241;-25
2024/02/22 00:31:24;;;;;;;2.00;1.90;;;;;;;19.52;52.86;96783.56;5046782;28;20240;-25
2024/02/22 00:33:51;;;;;;;2.17;1.90;;;;;;;19.53;52.28;96775.09;5040810;28;20197;-25
2024/02/22 00:36:17;;;;;;;2.43;2.20;;;;;;;19.54;52.43;96773.41;5049924;28;20262;-25
2024/02/22 00:38:45;;;;;;;1.90;1.80;;;;;;;19.54;52.53;96769.16;5049311;28;20209;-25
2024/02/22 00:41:11;;;;;;;2.00;1.90;;;;;;;19.54;52.52;96760.69;5047540;28;20279;-25
2024/02/22 00:43:39;;;;;;;1.90;1.80;;;;;;;19.54;52.45;96758.13;5044633;28;20208;-27
2024/02/22 00:46:06;;;;;;;2.50;1.90;;;;;;;19.53;52.40;96764.91;5045433;28;20202;-26
2024/02/22 00:48:32;;;;;;;2.10;2.00;;;;;;;19.53;52.70;96759.81;5050712;28;20227;-25
2024/02/22 00:50:59;;;;;;;1.83;1.73;;;;;;;19.53;52.81;96752.16;5051682;28;20208;-25
2024/02/22 00:53:26;;;;;;;3.00;1.97;;;;;;;19.52;52.32;96731.72;5045971;28;20197;-25
2024/02/22 00:55:52;;;;;;;2.40;2.20;;;;;;;19.52;52.47;96724.09;5044669;28;20224;-27
2024/02/22 00:58:19;;;;;;;2.17;2.00;;;;;;;19.51;52.54;96718.13;5046056;28;20201;-25
2024/02/22 01:00:46;;;;;;;2.07;1.87;;;;;;;19.50;52.47;96706.22;5046256;28;20234;-25
2024/02/22 01:03:12;;;;;;;2.10;1.90;;;;;;;19.50;51.98;96696.03;5046625;28;20246;-26
2024/02/22 01:05:39;;;;;;;1.90;1.80;;;;;;;19.53;52.38;96701.19;5050747;28;20255;-26
2024/02/22 01:08:06;;;;;;;2.10;1.90;;;;;;;19.54;52.32;96695.25;5046969;28;20222;-25
2024/02/22 01:10:33;;;;;;;2.13;2.00;;;;;;;19.54;52.40;96687.63;5045056;28;20207;-27
2024/02/22 01:13:00;;;;;;;1.70;1.60;;;;;;;19.53;52.49;96685.91;5041956;28;20659;-25
2024/02/22 01:15:27;;;;;;;2.33;1.83;;;;;;;19.52;52.52;96675.66;5049489;28;20603;-25
2024/02/22 01:17:53;;;;;;;2.00;1.67;;;;;;;19.52;52.62;96663.81;5050366;28;20205;-26
2024/02/22 01:20:20;;;;;;;2.03;1.80;;;;;;;19.53;52.28;96657.00;5040134;28;20228;-25
2024/02/22 01:22:47;;;;;;;1.87;1.77;;;;;;;19.52;52.60;96660.38;5050330;28;20228;-25
2024/02/22 01:25:13;;;;;;;1.80;1.70;;;;;;;19.52;52.69;96648.50;5050353;28;20220;-25
2024/02/22 01:27:40;;;;;;;2.10;1.90;;;;;;;19.52;52.50;96650.19;5049533;28;20217;-25
2024/02/22 01:30:07;;;;;;;1.90;1.80;;;;;;;19.51;52.64;96651.88;5046398;28;20259;-25
2024/02/22 01:32:33;;;;;;;1.90;1.80;;;;;;;19.52;52.41;96637.44;5048408;28;20208;-26
2024/02/22 01:35:00;;;;;;;2.10;1.90;;;;;;;19.53;52.50;96634.06;5051356;28;20225;-26
2024/02/22 01:37:27;;;;;;;2.00;1.90;;;;;;;19.53;52.36;96609.44;5048215;28;20204;-25
2024/02/22 01:39:53;;;;;;;1.70;1.60;;;;;;;19.54;52.40;96572.09;5049276;28;20201;-26
2024/02/22 01:42:20;;;;;;;1.67;1.57;;;;;;;19.54;52.79;96582.28;5044595;28;20240;-25
2024/02/22 01:44:46;;;;;;;1.63;1.53;;;;;;;19.53;52.57;96578.88;5049590;28;20238;-26
2024/02/22 01:47:13;;;;;;;1.90;1.80;;;;;;;19.53;52.45;96565.25;5042763;28;20680;-25
2024/02/22 01:49:40;;;;;;;1.90;1.80;;;;;;;19.53;52.51;96547.41;5045011;28;20205;-25
2024/02/22 01:52:07;;;;;;;2.03;1.83;;;;;;;19.53;52.45;96543.19;5040199;28;20224;-25
2024/02/22 01:54:34;;;;;;;2.10;1.90;;;;;;;19.54;52.41;96550.00;5043790;28;20228;-25
2024/02/22 01:57:01;;;;;;;1.80;1.70;;;;;;;19.52;52.55;96540.63;5048313;28;20335;-26
2024/02/22 01:59:27;;;;;;;1.80;1.70;;;;;;;19.51;52.25;96527.00;5042238;28;20656;-25
2024/02/22 02:01:55;;;;;;;2.00;1.90;;;;;;;19.52;52.39;96517.69;5045975;28;20209;-25
2024/02/22 02:04:22;;;;;;;2.17;1.80;;;;;;;19.52;52.50;96502.38;5048270;28;20715;-25
2024/02/22 02:06:48;;;;;;;2.07;1.87;;;;;;;19.52;52.36;96485.44;5042151;28;20284;-25
2024/02/22 02:09:16;;;;;;;1.70;1.60;;;;;;;19.54;52.25;96480.34;5044086;28;20202;-25
2024/02/22 02:11:44;;;;;;;1.70;1.60;;;;;;;19.54;52.43;96476.09;5038119;28;20228;-26
2024/02/22 02:14:11;;;;;;;1.70;1.60;;;;;;;19.54;52.38;96473.56;5042095;28;20224;-25
2024/02/22 02:16:38;;;;;;;1.60;1.50;;;;;;;19.53;52.33;96456.56;5049376;28;20201;-25
2024/02/22 02:19:07;;;;;;;1.70;1.60;;;;;;;19.54;52.20;96455.72;5041204;28;20202;-25
2024/02/22 02:21:52;;;;;;;1.93;1.70;;;;;;;19.54;52.40;96440.44;5046039;28;20255;-27
2024/02/22 02:25:01;;;;;;;2.00;1.80;;;;;;;19.55;52.41;96454.91;5039818;28;20244;-26
2024/02/22 02:27:28;;;;;;;1.77;1.60;;;;;;;19.54;52.50;96448.06;5041653;28;20207;-25
2024/02/22 02:29:54;;;;;;;1.57;1.47;;;;;;;19.52;52.49;96444.66;5037188;28;20252;-25
2024/02/22 02:32:21;;;;;;;2.13;1.50;;;;;;;19.54;52.58;96448.06;5047524;28;20213;-25
2024/02/22 02:34:47;;;;;;;1.70;1.60;;;;;;;19.54;52.44;96448.06;5040085;28;20225;-25
2024/02/22 02:37:14;;;;;;;1.80;1.70;;;;;;;19.54;52.38;96463.34;5044668;28;20225;-27
2024/02/22 02:39:41;;;;;;;2.40;1.53;;;;;;;19.56;52.35;96458.28;5046947;28;20193;-29
2024/02/22 02:42:07;;;;;;;1.70;1.60;;;;;;;19.58;52.29;96461.75;5050633;28;20208;-25
2024/02/22 02:44:34;;;;;;;1.60;1.50;;;;;;;19.58;52.27;96464.28;5046545;28;20221;-25
2024/02/22 02:47:02;;;;;;;1.70;1.60;;;;;;;19.59;52.16;96456.69;5052448;28;20638;-25
2024/02/22 02:49:29;;;;;;;1.60;1.50;;;;;;;19.58;52.70;96470.25;5051618;28;20243;-26
2024/02/22 02:51:55;;;;;;;1.63;1.53;;;;;;;19.57;52.44;96488.91;5053819;28;20197;-26
2024/02/22 02:54:22;;;;;;;2.00;1.80;;;;;;;19.58;52.45;96474.47;5043569;28;20715;-25
2024/02/22 02:56:48;;;;;;;1.57;1.47;;;;;;;19.57;52.49;96476.16;5049909;28;20659;-25
2024/02/22 02:59:16;;;;;;;1.83;1.70;;;;;;;19.57;52.44;96480.41;5048636;28;20436;-25
2024/02/22 03:01:47;;;;;;;1.37;1.27;;;;;;;19.55;52.48;96485.47;5049740;28;20216;-25
2024/02/22 03:04:15;;;;;;;1.73;1.57;;;;;;;19.57;52.47;96472.78;5050055;28;20223;-25
2024/02/22 03:06:41;;;;;;;1.50;1.40;;;;;;;19.55;52.41;96461.69;5053531;28;20641;-25
2024/02/22 03:09:09;;;;;;;1.63;1.53;;;;;;;19.58;52.31;96464.28;5048573;28;20197;-25
2024/02/22 03:11:35;;;;;;;1.80;1.70;;;;;;;19.53;52.35;96445.50;5045285;28;20215;-25
2024/02/22 03:14:02;;;;;;;1.50;1.40;;;;;;;19.59;52.39;96445.63;5048064;28;20221;-26
2024/02/22 03:16:29;;;;;;;1.70;1.60;;;;;;;19.58;52.48;96426.94;5045762;28;20228;-25
2024/02/22 03:18:56;;;;;;;1.80;1.70;;;;;;;19.59;52.33;96410.81;5051038;28;20730;-25
2024/02/22 03:21:23;;;;;;;1.50;1.40;;;;;;;19.59;52.42;96415.03;5044105;28;20572;-25
2024/02/22 03:23:50;;;;;;;1.43;1.33;;;;;;;19.57;52.48;96392.06;5048429;28;20196;-25
2024/02/22 03:26:17;;;;;;;1.80;1.70;;;;;;;19.57;52.67;96391.22;5051352;28;20243;-25
2024/02/22 03:28:45;;;;;;;1.60;1.50;;;;;;;19.57;52.44;96381.03;5050226;28;20580;-25
2024/02/22 03:31:11;;;;;;;1.80;1.70;;;;;;;19.58;52.58;96373.41;5049549;28;20288;-25
2024/02/22 03:33:40;;;;;;;1.70;1.60;;;;;;;19.56;52.42;96369.97;5047327;28;20201;-25
2024/02/22 03:36:10;;;;;;;1.60;1.50;;;;;;;19.57;52.44;96369.13;5052390;28;20228;-26
2024/02/22 03:38:37;;;;;;;1.53;1.43;;;;;;;19.57;52.45;96378.50;5046411;28;20684;-27
2024/02/22 03:41:04;;;;;;;1.87;1.67;;;;;;;19.57;52.47;96368.28;5047707;28;20201;-25
2024/02/22 03:43:31;;;;;;;1.50;1.40;;;;;;;19.58;52.37;96375.97;5041854;28;20204;-25
2024/02/22 03:45:57;;;;;;;1.70;1.60;;;;;;;19.58;52.75;96383.63;5046639;28;20688;-25
2024/02/22 03:48:24;;;;;;;1.60;1.50;;;;;;;19.60;52.73;96386.19;5045230;28;20202;-25
2024/02/22 03:50:50;;;;;;;1.60;1.50;;;;;;;19.59;52.49;96376.81;5044146;28;20198;-25
2024/02/22 03:53:17;;;;;;;1.73;1.57;;;;;;;19.58;52.46;96387.84;5048667;28;20524;-25
2024/02/22 03:55:44;;;;;;;1.70;1.60;;;;;;;19.60;52.34;96388.75;5043882;28;20225;-25
2024/02/22 03:58:11;;;;;;;1.50;1.40;;;;;;;19.59;52.53;96384.44;5049353;28;20236;-25
2024/02/22 04:00:37;;;;;;;1.50;1.40;;;;;;;19.58;52.53;96386.16;5046150;28;20197;-25
2024/02/22 04:03:04;;;;;;;1.70;1.60;;;;;;;19.59;52.45;96394.66;5050696;28;20201;-26
2024/02/22 04:05:31;;;;;;;1.60;1.40;;;;;;;19.58;52.45;96393.81;5042662;28;20213;-25
2024/02/22 04:07:57;;;;;;;1.70;1.60;;;;;;;19.58;52.56;96398.03;5049401;28;20197;-25
2024/02/22 04:10:24;;;;;;;1.70;1.60;;;;;;;19.58;52.47;96391.25;5051504;28;20196;-26
2024/02/22 04:12:51;;;;;;;1.47;1.37;;;;;;;19.58;52.21;96398.91;5045387;28;20284;-25
2024/02/22 04:15:18;;;;;;;1.50;1.40;;;;;;;19.59;52.13;96395.50;5043973;28;20288;-25
2024/02/22 04:17:45;;;;;;;1.70;1.60;;;;;;;19.59;52.43;96390.41;5045013;28;20201;-25
2024/02/22 04:20:13;;;;;;;1.93;1.70;;;;;;;19.60;52.33;96396.38;5044562;28;20221;-25
2024/02/22 04:22:47;;;;;;;1.60;1.50;;;;;;;19.57;52.47;96384.41;5038524;28;20202;-25
2024/02/22 04:25:14;;;;;;;1.60;1.50;;;;;;;19.59;52.47;96387.88;5049351;28;20217;-25
2024/02/22 04:27:40;;;;;;;1.57;1.47;;;;;;;19.57;52.50;96379.31;5044557;28;20672;-27
2024/02/22 04:30:07;;;;;;;1.50;1.40;;;;;;;19.59;52.51;96387.00;5041523;28;20198;-25
2024/02/22 04:32:34;;;;;;;1.70;1.60;;;;;;;19.58;52.41;96386.16;5038110;28;20743;-28
2024/02/22 04:35:01;;;;;;;1.53;1.43;;;;;;;19.58;52.53;96377.66;5040848;28;20231;-25
2024/02/22 04:37:28;;;;;;;1.43;1.33;;;;;;;19.58;52.53;96375.09;5047882;28;20703;-25
2024/02/22 04:39:54;;;;;;;1.87;1.77;;;;;;;19.57;52.53;96370.84;5051192;28;20197;-26
2024/02/22 04:42:21;;;;;;;1.53;1.43;;;;;;;19.58;52.45;96372.56;5049680;28;20220;-25
2024/02/22 04:44:47;;;;;;;1.63;1.53;;;;;;;19.57;52.15;96371.69;5040726;28;20221;-28
2024/02/22 04:47:14;;;;;;;1.50;1.40;;;;;;;19.58;52.44;96362.34;5050035;28;20197;-25
2024/02/22 04:49:41;;;;;;;1.50;1.40;;;;;;;19.58;52.22;96347.94;5051810;28;20201;-25
2024/02/22 04:52:07;;;;;;;1.63;1.53;;;;;;;19.60;52.29;96355.63;5048915;28;20232;-25
2024/02/22 04:54:34;;;;;;;1.50;1.40;;;;;;;19.60;52.42;96337.78;5038760;28;20221;-25
2024/02/22 04:57:09;;;;;;;1.50;1.40;;;;;;;19.59;51.85;96344.53;5043323;28;20213;-25
2024/02/22 04:59:37;;;;;;;1.53;1.43;;;;;;;19.58;52.48;96340.28;5031622;28;20296;-25
2024/02/22 05:02:04;;;;;;;1.40;1.30;;;;;;;19.59;52.48;96338.59;5039184;28;20259;-25
2024/02/22 05:04:30;;;;;;;1.53;1.43;;;;;;;19.59;52.84;96349.66;5038603;28;20217;-29
2024/02/22 05:06:57;;;;;;;1.50;1.40;;;;;;;19.58;52.48;96339.41;5043024;28;20200;-26
2024/02/22 05:09:24;;;;;;;1.50;1.40;;;;;;;19.59;52.54;96338.59;5046507;28;20193;-25
2024/02/22 05:11:50;;;;;;;1.43;1.33;;;;;;;19.57;52.58;96330.91;5037274;28;20290;-26
2024/02/22 05:14:17;;;;;;;1.63;1.53;;;;;;;19.58;52.42;96344.53;5049425;28;20220;-25
2024/02/22 05:16:44;;;;;;;1.60;1.50;;;;;;;19.57;52.45;96336.00;5049956;28;20220;-25
2024/02/22 05:19:11;;;;;;;1.27;1.20;;;;;;;19.59;52.13;96336.03;5047099;28;20201;-25
2024/02/22 05:21:37;;;;;;;1.67;1.57;;;;;;;19.59;52.39;96328.38;5046198;28;20201;-25
2024/02/22 05:24:04;;;;;;;1.30;1.20;;;;;;;19.60;52.30;96330.13;5043867;28;20304;-26
2024/02/22 05:26:30;;;;;;;1.50;1.40;;;;;;;19.60;52.86;96325.88;5050670;28;20272;-25
2024/02/22 05:28:57;;;;;;;1.50;1.40;;;;;;;19.59;52.21;96319.06;5050677;28;20267;-25
2024/02/22 05:31:24;;;;;;;1.47;1.37;;;;;;;19.59;52.41;96321.63;5044759;28;20236;-25
2024/02/22 05:33:51;;;;;;;1.70;1.60;;;;;;;19.59;52.46;96318.19;5050602;28;20200;-27
2024/02/22 05:36:18;;;;;;;1.83;1.50;;;;;;;19.59;52.36;96315.66;5049590;28;20711;-26
2024/02/22 05:38:45;;;;;;;1.40;1.30;;;;;;;19.59;52.43;96308.00;5040875;28;20262;-25
2024/02/22 05:41:12;;;;;;;1.40;1.30;;;;;;;19.60;52.35;96307.19;5045193;28;20258;-30
2024/02/22 05:43:38;;;;;;;1.30;1.30;;;;;;;19.58;52.50;96299.53;5051066;28;20236;-25
2024/02/22 05:46:05;;;;;;;1.47;1.37;;;;;;;19.57;52.47;96297.78;5049297;28;20196;-25
2024/02/22 05:48:32;;;;;;;1.50;1.40;;;;;;;19.57;52.15;96290.13;5048349;28;20197;-25
2024/02/22 05:50:59;;;;;;;1.40;1.30;;;;;;;19.58;52.39;96293.56;5051338;28;20205;-25
2024/02/22 05:53:25;;;;;;;1.40;1.30;;;;;;;19.51;52.28;96274.75;5051805;28;20197;-25
2024/02/22 05:55:52;;;;;;;1.70;1.60;;;;;;;19.58;52.59;96279.13;5049960;28;20653;-25
2024/02/22 05:58:18;;;;;;;1.67;1.57;;;;;;;19.58;52.33;96275.72;5045856;28;20224;-27
2024/02/22 06:00:45;;;;;;;2.73;1.73;;;;;;;19.58;52.38;96273.16;5046457;28;20197;-25
2024/02/22 06:03:12;;;;;;;2.17;1.70;;;;;;;19.57;52.38;96271.47;5051046;28;20230;-25
2024/02/22 06:05:39;;;;;;;2.90;1.87;;;;;;;19.56;51.69;96267.19;5048139;28;20220;-25
2024/02/22 06:08:05;;;;;;;2.00;1.80;;;;;;;19.55;51.98;96266.34;5041038;28;20197;-25
2024/02/22 06:10:32;;;;;;;1.77;1.57;;;;;;;19.54;51.84;96271.41;5050983;28;20197;-25
2024/02/22 06:12:59;;;;;;;2.00;1.80;;;;;;;19.53;52.14;96269.66;5047164;28;20207;-25
2024/02/22 06:15:25;;;;;;;2.57;1.77;;;;;;;19.53;51.97;96262.03;5038712;28;20225;-32
2024/02/22 06:17:52;;;;;;;1.97;1.87;;;;;;;19.51;52.16;96256.91;5048594;28;20197;-25
2024/02/22 06:20:18;;;;;;;1.63;1.50;;;;;;;19.51;52.09;96256.06;5055197;28;20203;-25
2024/02/22 06:22:45;;;;;;;1.50;1.40;;;;;;;19.51;52.21;96244.16;5054907;28;20627;-25
2024/02/22 06:25:15;;;;;;;2.67;1.80;;;;;;;19.51;51.73;96241.63;5046763;28;20225;-26
2024/02/22 06:27:42;;;;;;;1.63;1.53;;;;;;;19.52;52.09;96238.25;5050708;28;20263;-25
2024/02/22 06:30:14;;;;;;;1.83;1.73;;;;;;;19.52;52.17;96237.38;5041120;28;20229;-26
2024/02/22 06:32:41;;;;;;;1.70;1.60;;;;;;;19.52;51.99;96232.28;5050714;28;20205;-26
2024/02/22 06:35:08;;;;;;;1.60;1.50;;;;;;;19.50;52.22;96232.28;5047908;28;20700;-25
2024/02/22 06:37:35;;;;;;;1.73;1.60;;;;;;;19.51;52.12;96228.88;5052894;28;20263;-25
2024/02/22 06:40:02;;;;;;;1.80;1.70;;;;;;;19.50;52.33;96226.31;5053931;28;20302;-25
2024/02/22 06:42:29;;;;;;;1.57;1.47;;;;;;;19.51;52.08;96233.97;5046553;28;20197;-25
2024/02/22 06:44:55;;;;;;;1.60;1.50;;;;;;;19.51;52.31;96225.50;5052625;28;20225;-25
2024/02/22 06:47:22;;;;;;;1.87;1.77;;;;;;;19.51;52.17;96225.50;5054074;28;20193;-25
2024/02/22 06:49:49;;;;;;;1.87;1.73;;;;;;;19.47;52.46;96210.97;5050498;28;20675;-25
2024/02/22 06:52:16;;;;;;;1.50;1.40;;;;;;;19.51;52.25;96228.88;5054201;28;20254;-25
2024/02/22 06:54:42;;;;;;;1.80;1.70;;;;;;;19.51;52.28;96220.41;5051260;28;20271;-25
2024/02/22 06:57:09;;;;;;;1.93;1.60;;;;;;;19.51;52.27;96222.94;5046414;28;20209;-27
2024/02/22 06:59:36;;;;;;;1.53;1.43;;;;;;;19.50;52.54;96216.13;5051176;28;20694;-25
2024/02/22 07:02:05;;;;;;;1.63;1.50;;;;;;;19.51;52.22;96215.31;5052950;28;20197;-25
2024/02/22 07:04:31;;;;;;;1.47;1.37;;;;;;;19.51;52.31;96215.31;5044150;28;20225;-27
2024/02/22 07:06:58;;;;;;;6.17;1.70;;;;;;;19.50;52.16;96214.44;5048733;28;20197;-26
2024/02/22 07:09:25;;;;;;;2.53;1.70;;;;;;;19.49;52.70;96217.81;5042104;28;20207;-25
2024/02/22 07:11:54;;;;;;;1.67;1.57;;;;;;;19.47;52.29;96219.47;5050446;28;20691;-25
2024/02/22 07:14:21;;;;;;;3.03;1.47;;;;;;;19.49;52.30;96228.00;5049314;28;20221;-25
2024/02/22 07:16:50;;;;;;;1.60;1.50;;;;;;;19.49;52.19;96220.38;5039948;28;20287;-27
2024/02/22 07:19:17;;;;;;;2.20;1.60;;;;;;;19.50;52.29;96224.63;5053769;28;20197;-25
2024/02/22 07:21:44;;;;;;;2.20;1.43;;;;;;;19.50;52.22;96227.19;5051973;28;20278;-25
2024/02/22 07:24:11;;;;;;;1.57;1.47;;;;;;;19.48;52.01;96218.63;5051083;28;20734;-25
2024/02/22 07:26:38;;;;;;;1.50;1.40;;;;;;;19.50;52.21;96216.13;5053759;28;20283;-31
2024/02/22 07:29:05;;;;;;;2.27;1.50;;;;;;;19.50;52.29;96216.97;5052446;28;20240;-25
2024/02/22 07:31:36;;;;;;;1.77;1.60;;;;;;;19.49;52.28;96212.72;5042170;28;20206;-25
2024/02/22 07:34:03;;;;;;;1.50;1.40;;;;;;;19.50;52.27;96211.03;5047973;28;20232;-29
2024/02/22 07:36:29;;;;;;;1.50;1.40;;;;;;;19.50;52.29;96203.38;5053230;28;20233;-25
2024/02/22 07:38:57;;;;;;;1.73;1.63;;;;;;;19.50;52.41;96201.69;5053280;28;20204;-25
2024/02/22 07:41:24;;;;;;;2.43;1.37;;;;;;;19.50;52.26;96205.91;5044675;28;20667;-25
2024/02/22 07:43:51;;;;;;;1.50;1.40;;;;;;;19.48;52.21;96203.34;5044803;28;20192;-27
2024/02/22 07:46:18;;;;;;;2.10;1.70;;;;;;;19.49;52.39;96200.00;5053339;28;20652;-25
2024/02/22 07:48:45;;;;;;;1.57;1.47;;;;;;;19.47;52.42;96185.50;5045037;28;20204;-25
2024/02/22 07:51:12;;;;;;;2.33;1.50;;;;;;;19.49;52.26;96182.16;5046312;28;20192;-25
2024/02/22 07:53:38;;;;;;;1.60;1.50;;;;;;;19.49;52.23;96189.81;5046587;28;20255;-25
2024/02/22 07:56:06;;;;;;;1.40;1.30;;;;;;;19.48;52.38;96180.41;5053205;28;20250;-25
2024/02/22 07:58:44;;;;;;;1.63;1.53;;;;;;;19.49;52.18;96178.75;5051009;28;20212;-25
2024/02/22 08:01:10;;;;;;;1.50;1.40;;;;;;;19.49;52.28;96178.75;5050757;28;20255;-26
2024/02/22 08:03:37;;;;;;;2.70;1.50;;;;;;;19.47;52.10;96181.25;5052413;28;20204;-25
2024/02/22 08:06:04;;;;;;;1.40;1.30;;;;;;;19.49;52.29;96179.59;5052960;28;20205;-25
2024/02/22 08:08:31;;;;;;;1.63;1.53;;;;;;;19.47;52.24;96173.63;5049774;28;20208;-25
2024/02/22 08:10:57;;;;;;;1.50;1.40;;;;;;;19.47;52.18;96176.16;5052806;28;20201;-25
2024/02/22 08:13:24;;;;;;;2.13;1.67;;;;;;;19.48;52.39;96177.03;5048610;28;20201;-26
2024/02/22 08:15:51;;;;;;;1.40;1.30;;;;;;;19.47;52.32;96181.25;5047177;28;20286;-25
2024/02/22 08:18:17;;;;;;;1.40;1.30;;;;;;;19.46;52.29;96177.00;5047468;28;20225;-25
2024/02/22 08:20:44;;;;;;;1.60;1.50;;;;;;;19.47;52.37;96175.31;5052765;28;20259;-25
2024/02/22 08:23:14;;;;;;;1.70;1.50;;;;;;;19.47;52.28;96171.06;5050231;28;20296;-25
2024/02/22 08:25:41;;;;;;;1.60;1.50;;;;;;;19.47;52.14;96167.66;5047825;28;20303;-26
2024/02/22 08:28:08;;;;;;;1.97;1.30;;;;;;;19.46;52.74;96164.28;5051303;28;20193;-25
2024/02/22 08:30:38;;;;;;;2.47;1.40;;;;;;;19.46;52.38;96165.94;5052519;28;20208;-27
2024/02/22 08:33:05;;;;;;;1.80;1.40;;;;;;;19.46;52.24;96161.72;5038870;28;20201;-25
2024/02/22 08:35:31;;;;;;;1.73;1.63;;;;;;;19.28;52.12;96133.41;5052390;28;20629;-26
2024/02/22 08:37:58;;;;;;;1.60;1.50;;;;;;;19.47;52.22;96152.38;5052108;28;20221;-25
2024/02/22 08:40:25;;;;;;;1.60;1.50;;;;;;;19.48;52.21;96165.13;5051198;28;20668;-26
2024/02/22 08:43:05;;;;;;;1.50;1.40;;;;;;;19.47;52.32;96158.34;5050648;28;20502;-25
2024/02/22 08:45:31;;;;;;;1.50;1.40;;;;;;;19.47;52.38;96157.47;5052556;28;20216;-26
2024/02/22 08:47:58;;;;;;;1.43;1.30;;;;;;;19.46;52.51;96151.53;5045989;28;20630;-25
2024/02/22 08:50:25;;;;;;;1.50;1.40;;;;;;;19.46;52.42;96150.66;5042538;28;20207;-25
2024/02/22 08:52:52;;;;;;;1.80;1.53;;;;;;;19.40;52.61;96132.75;5052288;28;20557;-26
2024/02/22 08:55:18;;;;;;;1.57;1.47;;;;;;;19.47;52.47;96144.72;5052115;28;20227;-25
2024/02/22 08:57:45;;;;;;;1.70;1.60;;;;;;;19.47;52.48;96139.63;5049824;28;20702;-25
2024/02/22 09:00:19;;;;;;;3.23;1.37;;;;;;;19.46;52.44;96136.25;5051529;28;20235;-25
2024/02/22 09:02:46;;;;;;;1.40;1.30;;;;;;;19.45;52.51;96134.50;5045464;28;20577;-28
2024/02/22 09:05:12;;;;;;;1.53;1.43;;;;;;;19.45;52.42;96137.06;5047178;28;20263;-25
2024/02/22 09:07:39;;;;;;;1.30;1.20;;;;;;;19.47;52.27;96132.00;5045869;28;20197;-25
2024/02/22 09:10:07;;;;;;;1.47;1.37;;;;;;;19.47;52.24;96132.00;5051257;28;20650;-25
2024/02/22 09:12:34;;;;;;;1.87;1.30;;;;;;;19.41;52.36;96125.13;5050287;28;20296;-25
2024/02/22 09:15:02;;;;;;;2.10;1.40;;;;;;;19.46;52.25;96122.66;5041855;28;20263;-28
2024/02/22 09:17:28;;;;;;;1.53;1.43;;;;;;;19.47;52.55;96121.81;5051493;28;20216;-27
2024/02/22 09:19:55;;;;;;;1.60;1.40;;;;;;;19.47;52.41;96122.66;5051621;28;20279;-26
2024/02/22 09:22:22;;;;;;;1.50;1.40;;;;;;;19.47;51.80;96122.66;5049431;28;20612;-26
2024/02/22 09:24:48;;;;;;;1.50;1.40;;;;;;;19.47;52.33;96117.56;5050246;28;20229;-25
2024/02/22 09:27:15;;;;;;;1.37;1.27;;;;;;;19.47;52.85;96114.16;5051457;28;20284;-26
2024/02/22 09:29:42;;;;;;;1.40;1.30;;;;;;;19.47;52.37;96109.94;5051530;28;20197;-25
2024/02/22 09:32:09;;;;;;;1.50;1.40;;;;;;;19.46;52.47;96094.63;5046493;28;20267;-25
2024/02/22 09:34:37;;;;;;;1.50;1.40;;;;;;;19.47;52.28;96102.28;5041704;28;20229;-25
2024/02/22 09:37:04;;;;;;;1.47;1.37;;;;;;;19.47;52.32;96103.97;5049578;28;20731;-26
2024/02/22 09:39:30;;;;;;;1.73;1.47;;;;;;;19.47;52.20;96099.75;5048375;28;20205;-25
2024/02/22 09:41:57;;;;;;;1.60;1.50;;;;;;;19.45;52.52;96092.91;5046047;28;20197;-25
2024/02/22 09:44:23;;;;;;;1.40;1.30;;;;;;;19.49;52.28;96097.22;5038760;28;20750;-28
2024/02/22 09:46:53;;;;;;;1.40;1.30;;;;;;;19.47;52.20;96083.59;5047609;28;20197;-25
2024/02/22 09:49:21;;;;;;;1.80;1.70;;;;;;;19.49;52.21;96085.34;5049165;28;20220;-25
2024/02/22 09:51:51;;;;;;;1.30;1.20;;;;;;;19.48;52.22;96086.16;5046716;28;20207;-25
2024/02/22 09:54:18;;;;;;;2.27;1.30;;;;;;;19.48;52.38;96088.69;5051430;28;20270;-25
2024/02/22 09:56:46;;;;;;;2.03;1.30;;;;;;;19.48;52.38;96081.06;5055750;28;20252;-25
2024/02/22 09:59:13;;;;;;;1.40;1.30;;;;;;;19.49;52.30;96076.84;5017161;28;20196;-25
2024/02/22 10:01:40;;;;;;;1.50;1.40;;;;;;;19.47;52.42;96068.28;5053801;28;20211;-25
2024/02/22 10:04:19;;;;;;;1.50;1.40;;;;;;;19.49;52.28;96067.50;5054846;28;20238;-25
2024/02/22 10:06:46;;;;;;;1.90;1.57;;;;;;;19.48;52.37;96064.94;5048115;28;20695;-25
2024/02/22 10:09:14;;;;;;;1.47;1.37;;;;;;;19.47;51.83;96071.72;5052891;28;20200;-26
2024/02/22 10:11:44;;;;;;;1.60;1.50;;;;;;;19.47;52.44;96058.97;5055196;28;20259;-25
2024/02/22 10:14:13;;;;;;;1.47;1.37;;;;;;;19.49;52.31;96069.19;5053299;28;20224;-25
2024/02/22 10:16:41;;;;;;;1.40;1.30;;;;;;;19.49;52.22;96059.88;5051871;28;20601;-25
2024/02/22 10:19:11;;;;;;;1.40;1.30;;;;;;;19.48;52.22;96053.03;5054308;28;20217;-25
2024/02/22 10:21:38;;;;;;;1.77;1.37;;;;;;;19.49;52.37;96042.03;5054815;28;20209;-25
2024/02/22 10:24:04;;;;;;;1.33;1.23;;;;;;;19.49;52.40;96033.53;5051258;28;20224;-25
2024/02/22 10:26:31;;;;;;;1.10;1.10;;;;;;;19.49;52.33;96030.97;5046423;28;20197;-29
2024/02/22 10:29:06;;;;;;;1.40;1.30;;;;;;;19.48;52.24;96022.47;5054493;28;20207;-25
2024/02/22 10:31:45;;;;;;;1.40;1.30;;;;;;;19.43;52.22;96013.91;5047698;28;20745;-25
2024/02/22 10:34:12;;;;;;;1.60;1.50;;;;;;;19.49;52.40;96023.31;5052301;28;20611;-30
2024/02/22 10:36:40;;;;;;;1.23;1.20;;;;;;;19.49;52.17;96025.88;5054469;28;20200;-26
2024/02/22 10:39:08;;;;;;;1.30;1.20;;;;;;;19.46;52.51;96021.59;5045506;28;20251;-29
2024/02/22 10:41:35;;;;;;;1.30;1.20;;;;;;;19.47;52.28;96019.91;5042403;28;20216;-25
2024/02/22 10:44:02;;;;;;;1.53;1.43;;;;;;;19.47;52.19;96018.22;5054451;28;20217;-25
2024/02/22 10:46:34;;;;;;;1.50;1.40;;;;;;;19.46;52.24;96005.44;5053814;28;20197;-25
2024/02/22 10:49:00;;;;;;;1.40;1.30;;;;;;;19.48;52.22;95998.69;5049627;28;20204;-25
2024/02/22 10:51:28;;;;;;;1.57;1.47;;;;;;;19.47;52.24;95987.63;5020233;28;20638;-25
2024/02/22 10:53:55;;;;;;;1.40;1.30;;;;;;;19.47;52.29;95984.22;5053945;28;20201;-27
2024/02/22 10:56:23;;;;;;;1.30;1.20;;;;;;;19.49;52.23;95973.25;5052508;28;20299;-25
2024/02/22 10:58:58;;;;;;;1.27;1.23;;;;;;;19.49;52.29;95977.47;5039744;28;20224;-25
2024/02/22 11:01:26;;;;;;;1.30;1.30;;;;;;;19.49;52.13;95968.16;5052743;28;20235;-27
2024/02/22 11:03:53;;;;;;;1.40;1.30;;;;;;;19.48;52.24;95971.50;5052817;28;20361;-25
2024/02/22 11:06:25;;;;;;;1.33;1.23;;;;;;;19.50;52.22;95958.78;5049540;28;20201;-26
2024/02/22 11:08:52;;;;;;;1.40;1.23;;;;;;;19.48;52.15;95943.47;5043906;28;20198;-25
2024/02/22 11:11:26;;;;;;;1.20;1.20;;;;;;;19.48;52.20;95946.03;5054017;28;20580;-25
2024/02/22 11:14:00;;;;;;;1.30;1.20;;;;;;;19.47;52.24;95930.72;5045610;28;20205;-26
2024/02/22 11:16:40;;;;;;;1.30;1.20;;;;;;;19.40;52.21;95919.63;5051221;28;20204;-27
2024/02/22 11:19:09;;;;;;;1.40;1.30;;;;;;;19.49;52.20;95929.06;5052819;28;20193;-25
2024/02/22 11:21:37;;;;;;;1.40;1.30;;;;;;;19.49;52.20;95929.94;5054132;28;20290;-25
2024/02/22 11:24:11;;;;;;;1.40;1.30;;;;;;;19.49;52.27;95927.38;5048369;28;20643;-25
2024/02/22 11:26:39;;;;;;;1.40;1.30;;;;;;;19.49;52.31;95918.88;5050317;28;20255;-25
2024/02/22 11:29:06;;;;;;;1.77;1.43;;;;;;;19.48;52.39;95912.91;5053801;28;20224;-26
2024/02/22 11:31:32;;;;;;;1.43;1.33;;;;;;;19.46;52.35;95901.88;5052124;28;20201;-25
2024/02/22 11:34:00;;;;;;;1.43;1.33;;;;;;;19.46;52.39;95891.69;5046590;28;20226;-25
2024/02/22 11:36:27;;;;;;;1.40;1.30;;;;;;;19.48;52.37;95889.97;5046146;28;20236;-25